createdAt,value
2018-02-23T00:01:57.419Z,62.70
2018-02-23T00:04:26.743Z,62.20
2018-02-23T00:06:56.017Z,63.20
2018-02-23T00:09:25.299Z,62.70
2018-02-23T00:11:56.055Z,62.90
2018-02-23T00:14:25.333Z,62.90
2018-02-23T00:16:56.243Z,63.00
2018-02-23T00:19:25.523Z,63.00
2018-02-23T00:21:54.813Z,63.70
2018-02-23T00:24:24.233Z,63.80
2018-02-23T00:26:53.565Z,62.00
2018-02-23T00:29:23.017Z,62.20
2018-02-23T00:31:52.269Z,63.00
2018-02-23T00:34:22.229Z,62.40
2018-02-23T00:36:52.208Z,63.70
2018-02-23T00:39:21.502Z,63.50
2018-02-23T00:41:50.768Z,63.30
2018-02-23T00:44:20.800Z,63.00
2018-02-23T00:46:50.072Z,63.00
2018-02-23T00:49:19.319Z,63.00
2018-02-23T00:51:48.580Z,63.00
2018-02-23T00:54:17.826Z,63.00
2018-02-23T00:56:47.074Z,62.80
2018-02-23T00:59:16.345Z,62.90
2018-02-23T01:01:45.606Z,62.40
2018-02-23T01:04:15.047Z,62.90
2018-02-23T01:06:44.303Z,63.20
2018-02-23T01:09:14.311Z,63.30
2018-02-23T01:11:44.341Z,63.10
2018-02-23T01:14:13.611Z,63.00
2018-02-23T01:16:42.854Z,63.10
2018-02-23T01:19:12.743Z,63.50
2018-02-23T01:21:42.899Z,63.30
2018-02-23T01:24:12.174Z,63.40
2018-02-23T01:26:41.469Z,62.30
2018-02-23T01:29:11.578Z,62.90
2018-02-23T01:31:40.885Z,63.60
2018-02-23T01:34:10.143Z,63.10
2018-02-23T01:36:39.388Z,63.30
2018-02-23T01:39:08.657Z,63.00
2018-02-23T01:41:37.937Z,62.70
2018-02-23T01:44:07.211Z,62.70
2018-02-23T01:46:36.481Z,63.30
2018-02-23T01:49:05.892Z,62.60
2018-02-23T01:51:35.902Z,62.90
2018-02-23T01:54:05.945Z,62.10
2018-02-23T01:56:35.232Z,62.10
2018-02-23T01:59:04.498Z,62.60
2018-02-23T02:01:34.565Z,62.60
2018-02-23T02:04:03.941Z,62.30
2018-02-23T02:06:33.194Z,62.10
2018-02-23T02:09:03.109Z,61.90
2018-02-23T02:11:32.361Z,62.00
2018-02-23T02:14:02.414Z,61.90
2018-02-23T02:16:31.703Z,61.80
2018-02-23T02:19:00.973Z,61.90
2018-02-23T02:21:30.322Z,62.40
2018-02-23T02:23:59.570Z,62.00
2018-02-23T02:26:28.838Z,61.70
2018-02-23T02:28:58.271Z,61.60
2018-02-23T02:31:27.506Z,61.30
2018-02-23T02:33:56.793Z,62.00
2018-02-23T02:36:26.041Z,61.80
2018-02-23T02:38:56.042Z,62.20
2018-02-23T02:41:25.320Z,61.60
2018-02-23T02:43:54.611Z,61.10
2018-02-23T02:46:23.846Z,62.00
2018-02-23T02:48:53.299Z,61.60
2018-02-23T02:51:22.580Z,61.60
2018-02-23T02:53:51.942Z,61.40
2018-02-23T02:56:21.995Z,61.20
2018-02-23T02:58:51.323Z,61.10
2018-02-23T03:01:20.594Z,61.50
2018-02-23T03:03:49.934Z,61.50
2018-02-23T03:06:19.229Z,62.20
2018-02-23T03:08:48.528Z,61.90
2018-02-23T03:11:17.770Z,62.60
2018-02-23T03:13:47.028Z,62.20
2018-02-23T03:16:16.405Z,63.00
2018-02-23T03:18:45.708Z,62.50
2018-02-23T03:21:14.981Z,62.80
2018-02-23T03:23:44.228Z,63.20
2018-02-23T03:26:13.514Z,63.50
2018-02-23T03:28:42.776Z,63.70
2018-02-23T03:31:12.809Z,63.70
2018-02-23T03:33:42.062Z,63.70
2018-02-23T03:36:11.348Z,63.30
2018-02-23T03:38:40.637Z,63.40
2018-02-23T03:41:09.904Z,62.90
2018-02-23T03:43:39.173Z,63.00
2018-02-23T03:46:09.310Z,63.10
2018-02-23T03:48:38.714Z,63.10
2018-02-23T03:51:07.999Z,62.70
2018-02-23T03:53:37.264Z,63.20
2018-02-23T03:56:06.512Z,62.80
2018-02-23T03:58:36.550Z,63.40
2018-02-23T04:01:05.803Z,63.20
2018-02-23T04:03:35.078Z,63.40
2018-02-23T04:06:04.325Z,63.00
2018-02-23T04:08:34.369Z,63.40
2018-02-23T04:11:03.630Z,63.40
2018-02-23T04:13:32.872Z,63.40
2018-02-23T04:16:02.138Z,63.60
2018-02-23T04:18:31.381Z,64.10
2018-02-23T04:21:01.413Z,64.40
2018-02-23T04:23:30.698Z,64.40
2018-02-23T04:25:59.982Z,64.20
2018-02-23T04:28:29.989Z,65.50
2018-02-23T04:30:59.292Z,65.50
2018-02-23T04:33:28.781Z,65.30
2018-02-23T04:35:58.113Z,65.60
2018-02-23T04:38:27.430Z,65.90
2018-02-23T04:40:56.630Z,66.40
2018-02-23T04:43:25.895Z,66.00
2018-02-23T04:45:55.138Z,66.60
2018-02-23T04:48:24.394Z,66.30
2018-02-23T04:50:54.426Z,66.50
2018-02-23T04:53:24.454Z,66.30
2018-02-23T04:55:53.746Z,66.30
2018-02-23T04:58:23.005Z,66.40
2018-02-23T05:00:52.254Z,66.10
2018-02-23T05:03:22.282Z,66.20
2018-02-23T05:05:51.535Z,66.20
2018-02-23T05:08:20.790Z,65.90
2018-02-23T05:10:50.077Z,65.60
2018-02-23T05:13:20.073Z,65.40
2018-02-23T05:15:49.340Z,65.40
2018-02-23T05:18:18.602Z,65.40
2018-02-23T05:20:47.862Z,65.60
2018-02-23T05:23:17.133Z,65.70
2018-02-23T05:25:46.379Z,65.90
2018-02-23T05:28:15.648Z,65.60
2018-02-23T05:30:44.901Z,64.50
2018-02-23T05:33:14.153Z,65.00
2018-02-23T05:35:43.428Z,65.30
2018-02-23T05:38:12.682Z,64.70
2018-02-23T05:40:41.950Z,65.10
2018-02-23T05:43:11.222Z,65.20
2018-02-23T05:45:40.489Z,64.80
2018-02-23T05:48:10.600Z,64.40
2018-02-23T05:50:39.964Z,64.30
2018-02-23T05:53:09.217Z,64.10
2018-02-23T05:55:39.249Z,64.70
2018-02-23T05:58:08.731Z,64.70
2018-02-23T06:00:38.121Z,65.00
2018-02-23T06:03:08.157Z,65.10
2018-02-23T06:05:37.432Z,65.10
2018-02-23T06:08:06.742Z,64.80
2018-02-23T06:10:36.053Z,65.10
2018-02-23T06:13:05.332Z,64.80
2018-02-23T06:15:40.222Z,64.90
2018-02-23T06:18:09.495Z,65.40
2018-02-23T06:20:38.729Z,65.80
2018-02-23T06:23:08.022Z,65.50
2018-02-23T06:25:37.290Z,65.10
2018-02-23T06:28:06.558Z,65.00
2018-02-23T06:30:35.808Z,65.10
2018-02-23T06:33:05.042Z,65.70
2018-02-23T06:35:34.315Z,65.70
2018-02-23T06:38:03.568Z,65.50
2018-02-23T06:40:32.845Z,65.40
2018-02-23T06:43:02.087Z,64.80
2018-02-23T06:45:31.335Z,64.60
2018-02-23T06:48:00.608Z,64.70
2018-02-23T06:50:30.635Z,64.70
2018-02-23T06:52:59.914Z,64.70
2018-02-23T06:55:29.182Z,64.10
2018-02-23T06:57:58.450Z,63.30
2018-02-23T07:00:27.687Z,62.90
2018-02-23T07:02:56.967Z,63.50
2018-02-23T07:05:26.448Z,63.20
2018-02-23T07:07:55.713Z,63.10
2018-02-23T07:10:24.961Z,62.70
2018-02-23T07:12:54.205Z,63.20
2018-02-23T07:15:23.470Z,63.40
2018-02-23T07:17:52.745Z,63.00
2018-02-23T07:20:22.030Z,62.50
2018-02-23T07:22:51.289Z,62.90
2018-02-23T07:25:20.954Z,62.90
2018-02-23T07:27:50.970Z,61.80
2018-02-23T07:30:20.229Z,61.80
2018-02-23T07:32:49.542Z,60.90
2018-02-23T07:35:18.806Z,61.60
2018-02-23T07:37:48.075Z,60.90
2018-02-23T07:40:18.113Z,59.50
2018-02-23T07:42:47.366Z,59.40
2018-02-23T07:45:16.638Z,56.20
2018-02-23T07:47:45.878Z,50.80
2018-02-23T07:50:15.140Z,41.50
2018-02-23T07:52:44.385Z,38.50
2018-02-23T07:55:13.649Z,34.90
2018-02-23T07:57:42.900Z,32.10
2018-02-23T08:00:12.914Z,29.50
2018-02-23T08:02:42.180Z,29.50
2018-02-23T08:05:11.435Z,28.00
2018-02-23T08:07:40.699Z,27.70
2018-02-23T08:10:09.940Z,26.60
2018-02-23T08:12:39.214Z,25.60
2018-02-23T08:15:08.468Z,25.80
2018-02-23T08:17:37.740Z,25.40
2018-02-23T08:20:07.010Z,24.90
2018-02-23T08:22:37.063Z,23.50
2018-02-23T08:25:06.324Z,23.50
2018-02-23T08:27:35.566Z,23.10
2018-02-23T08:30:04.871Z,22.80
2018-02-23T08:32:34.105Z,22.30
2018-02-23T08:35:03.369Z,22.00
2018-02-23T08:37:32.626Z,22.10
2018-02-23T08:40:01.883Z,22.10
2018-02-23T08:42:31.145Z,22.60
2018-02-23T08:45:00.401Z,22.20
2018-02-23T08:47:29.979Z,22.20
2018-02-23T08:49:59.220Z,22.10
2018-02-23T08:52:28.488Z,21.50
2018-02-23T08:54:57.764Z,21.80
2018-02-23T08:57:27.034Z,22.10
2018-02-23T08:59:56.289Z,21.40
2018-02-23T09:02:25.572Z,21.60
2018-02-23T09:04:54.865Z,20.60
2018-02-23T09:07:24.102Z,21.00
2018-02-23T09:09:53.482Z,21.80
2018-02-23T09:12:22.964Z,22.90
2018-02-23T09:14:53.080Z,21.60
2018-02-23T09:17:22.498Z,21.60
2018-02-23T09:19:51.749Z,22.20
2018-02-23T09:22:21.026Z,23.00
2018-02-23T09:24:50.298Z,22.30
2018-02-23T09:27:19.634Z,22.80
2018-02-23T09:29:48.847Z,24.20
2018-02-23T09:35:18.724Z,23.10
2018-02-23T09:37:47.964Z,24.80
2018-02-23T09:40:17.229Z,24.00
2018-02-23T09:42:47.253Z,22.40
2018-02-23T09:45:16.517Z,22.30
2018-02-23T09:47:45.792Z,22.50
2018-02-23T09:50:15.085Z,22.80
2018-02-23T09:52:45.093Z,21.40
2018-02-23T09:55:14.353Z,21.40
2018-02-23T09:57:45.105Z,22.50
2018-02-23T10:00:14.370Z,22.40
2018-02-23T10:02:43.661Z,22.20
2018-02-23T10:05:13.708Z,22.30
2018-02-23T10:07:42.968Z,22.50
2018-02-23T10:10:12.211Z,21.00
2018-02-23T10:12:41.496Z,21.20
2018-02-23T10:15:10.726Z,21.50
2018-02-23T10:17:40.743Z,22.80
2018-02-23T10:20:10.038Z,22.80
2018-02-23T10:22:39.283Z,22.90
2018-02-23T10:25:08.541Z,20.90
2018-02-23T10:27:38.578Z,21.60
2018-02-23T10:30:07.853Z,21.50
2018-02-23T10:32:37.170Z,21.70
2018-02-23T10:35:06.383Z,23.20
2018-02-23T10:37:35.664Z,22.90
2018-02-23T10:40:05.691Z,23.30
2018-02-23T10:42:35.098Z,23.30
2018-02-23T10:45:05.321Z,23.10
2018-02-23T10:47:34.597Z,23.20
2018-02-23T10:50:03.870Z,23.90
2018-02-23T10:52:33.124Z,22.80
2018-02-23T10:55:03.140Z,21.60
2018-02-23T10:57:32.417Z,21.60
2018-02-23T11:00:01.665Z,21.90
2018-02-23T11:02:30.921Z,23.10
2018-02-23T11:05:00.165Z,22.90
2018-02-23T11:07:29.471Z,23.50
2018-02-23T11:09:58.775Z,22.50
2018-02-23T11:12:28.052Z,22.00
2018-02-23T11:14:57.314Z,22.90
2018-02-23T11:17:26.574Z,21.00
2018-02-23T11:19:55.947Z,20.60
2018-02-23T11:22:25.217Z,20.90
2018-02-23T11:24:54.523Z,20.10
2018-02-23T11:27:23.787Z,19.70
2018-02-23T11:29:53.079Z,19.60
2018-02-23T11:32:22.325Z,21.20
2018-02-23T11:34:51.604Z,21.50
2018-02-23T11:37:20.874Z,20.20
2018-02-23T11:39:50.137Z,21.00
2018-02-23T11:42:19.402Z,19.70
2018-02-23T11:44:48.664Z,19.50
2018-02-23T11:47:18.754Z,19.60
2018-02-23T11:49:48.014Z,19.60
2018-02-23T11:52:17.335Z,19.90
2018-02-23T11:54:46.686Z,20.80
2018-02-23T11:57:15.993Z,20.60
2018-02-23T11:59:45.425Z,20.80
2018-02-23T12:02:14.710Z,20.80
2018-02-23T12:04:44.040Z,21.10
2018-02-23T12:07:13.357Z,21.50
2018-02-23T12:09:42.640Z,21.40
2018-02-23T12:12:11.908Z,20.70
2018-02-23T12:14:41.205Z,21.20
2018-02-23T12:17:11.273Z,21.10
2018-02-23T12:19:40.510Z,20.20
2018-02-23T12:22:10.636Z,22.30
2018-02-23T12:24:40.670Z,22.80
2018-02-23T12:27:10.284Z,22.80
2018-02-23T12:29:40.269Z,22.50
2018-02-23T12:32:09.538Z,22.50
2018-02-23T12:34:38.788Z,23.60
2018-02-23T12:37:08.836Z,24.10
2018-02-23T12:39:38.066Z,24.10
2018-02-23T12:42:07.327Z,24.60
2018-02-23T12:44:36.594Z,25.70
2018-02-23T12:47:05.993Z,26.50
2018-02-23T12:49:35.259Z,26.60
2018-02-23T12:52:04.492Z,28.10
2018-02-23T12:54:33.735Z,27.60
2018-02-23T12:57:02.978Z,27.00
2018-02-23T12:59:32.239Z,28.20
2018-02-23T13:02:01.486Z,29.40
2018-02-23T13:04:30.785Z,28.80
2018-02-23T13:07:00.040Z,28.90
2018-02-23T13:09:29.321Z,29.70
2018-02-23T13:11:58.589Z,30.60
2018-02-23T13:14:33.362Z,29.80
2018-02-23T13:17:02.655Z,31.50
2018-02-23T13:19:31.913Z,29.20
2018-02-23T13:22:01.166Z,28.50
2018-02-23T13:24:30.508Z,29.50
2018-02-23T13:27:05.190Z,29.60
2018-02-23T13:29:34.429Z,30.90
2018-02-23T13:32:03.676Z,30.60
2018-02-23T13:34:33.089Z,31.80
2018-02-23T13:37:02.341Z,31.90
2018-02-23T13:39:31.597Z,31.10
2018-02-23T13:42:00.839Z,31.20
2018-02-23T13:44:30.092Z,30.10
2018-02-23T13:46:59.378Z,32.00
2018-02-23T13:49:28.686Z,32.20
2018-02-23T13:51:58.710Z,32.10
2018-02-23T13:54:27.982Z,32.10
2018-02-23T13:56:58.731Z,31.00
2018-02-23T13:59:27.989Z,30.90
2018-02-23T14:01:57.266Z,31.80
2018-02-23T14:04:26.523Z,32.00
2018-02-23T14:07:01.246Z,32.70
2018-02-23T14:09:30.866Z,32.90
2018-02-23T14:12:00.134Z,33.20
2018-02-23T14:14:29.401Z,34.00
2018-02-23T14:16:58.667Z,33.60
2018-02-23T14:19:28.010Z,33.30
2018-02-23T14:21:57.350Z,33.30
2018-02-23T14:24:26.589Z,33.50
2018-02-23T14:26:56.009Z,33.60
2018-02-23T14:29:25.279Z,33.90
2018-02-23T14:31:55.325Z,34.50
2018-02-23T14:34:24.597Z,33.90
2018-02-23T14:36:53.990Z,33.90
2018-02-23T14:39:23.255Z,34.40
2018-02-23T14:41:52.500Z,33.90
2018-02-23T14:44:21.749Z,35.20
2018-02-23T14:46:51.032Z,33.70
2018-02-23T14:49:20.282Z,34.10
2018-02-23T14:51:49.526Z,34.70
2018-02-23T14:54:18.786Z,34.50
2018-02-23T14:56:48.195Z,33.70
2018-02-23T14:59:17.466Z,32.20
2018-02-23T15:01:46.709Z,33.20
2018-02-23T15:04:15.980Z,33.00
2018-02-23T15:06:45.254Z,33.20
2018-02-23T15:09:14.510Z,34.20
2018-02-23T15:11:43.753Z,35.00
2018-02-23T15:14:13.039Z,35.10
2018-02-23T15:16:42.282Z,33.60
2018-02-23T15:19:11.545Z,34.80
2018-02-23T15:21:40.822Z,33.80
2018-02-23T15:24:10.903Z,35.10
2018-02-23T15:26:40.179Z,35.10
2018-02-23T15:29:09.462Z,35.50
2018-02-23T15:34:47.080Z,34.90
2018-02-23T15:37:16.340Z,34.70
2018-02-23T15:39:45.595Z,34.70
2018-02-23T15:42:14.942Z,36.80
2018-02-23T15:44:45.286Z,36.20
2018-02-23T15:47:14.528Z,36.00
2018-02-23T15:49:49.162Z,36.20
2018-02-23T15:52:18.425Z,34.80
2018-02-23T15:54:47.669Z,34.50
2018-02-23T15:57:19.192Z,35.20
2018-02-23T15:59:48.449Z,35.80
2018-02-23T16:02:17.698Z,36.90
2018-02-23T16:04:46.949Z,36.60
2018-02-23T16:07:16.190Z,37.00
2018-02-23T16:09:45.458Z,36.90
2018-02-23T16:12:14.721Z,37.20
2018-02-23T16:14:44.097Z,37.70
2018-02-23T16:17:13.414Z,37.40
2018-02-23T16:19:43.452Z,38.40
2018-02-23T16:22:12.712Z,39.40
2018-02-23T16:24:41.966Z,39.30
2018-02-23T16:27:11.424Z,39.60
2018-02-23T16:29:40.733Z,40.60
2018-02-23T16:32:11.000Z,40.00
2018-02-23T16:34:40.273Z,39.60
2018-02-23T16:37:09.558Z,40.80
2018-02-23T16:39:38.972Z,41.10
2018-02-23T16:42:08.222Z,40.90
2018-02-23T16:44:37.511Z,40.30
2018-02-23T16:47:06.762Z,41.40
2018-02-23T16:49:36.059Z,41.20
2018-02-23T16:52:05.289Z,40.80
2018-02-23T16:54:34.655Z,40.70
2018-02-23T16:57:03.929Z,41.40
2018-02-23T16:59:33.297Z,42.00
2018-02-23T17:02:02.601Z,44.40
2018-02-23T17:04:31.921Z,45.30
2018-02-23T17:07:01.243Z,44.60
2018-02-23T17:09:31.361Z,43.30
2018-02-23T17:12:00.630Z,43.30
2018-02-23T17:14:29.976Z,43.50
2018-02-23T17:16:59.256Z,45.40
2018-02-23T17:19:28.520Z,48.60
2018-02-23T17:21:57.744Z,48.40
2018-02-23T17:24:27.039Z,49.10
2018-02-23T17:26:56.287Z,51.20
2018-02-23T17:29:26.324Z,48.90
2018-02-23T17:31:55.588Z,49.30
2018-02-23T17:34:25.829Z,48.00
2018-02-23T17:36:55.098Z,48.00
2018-02-23T17:39:24.390Z,49.00
2018-02-23T17:41:53.613Z,47.40
2018-02-23T17:44:22.977Z,46.80
2018-02-23T17:46:52.166Z,46.90
2018-02-23T17:49:21.406Z,49.40
2018-02-23T17:51:50.704Z,46.80
2018-02-23T17:54:19.959Z,47.30
2018-02-23T17:56:49.303Z,47.50
2018-02-23T17:59:18.566Z,46.50
2018-02-23T18:01:48.043Z,49.50
2018-02-23T18:04:17.320Z,50.70
2018-02-23T18:06:46.557Z,49.50
2018-02-23T18:09:15.825Z,48.40
2018-02-23T18:11:45.885Z,48.60
2018-02-23T18:14:15.138Z,48.50
2018-02-23T18:16:44.497Z,49.40
2018-02-23T18:19:13.739Z,49.20
2018-02-23T18:21:43.789Z,51.00
2018-02-23T18:24:13.149Z,51.00
2018-02-23T18:26:42.561Z,51.40
2018-02-23T18:29:11.845Z,50.00
2018-02-23T18:31:41.098Z,49.80
2018-02-23T18:34:10.425Z,50.30
2018-02-23T18:36:39.717Z,49.90
2018-02-23T18:39:09.015Z,49.00
2018-02-23T18:41:38.311Z,47.70
2018-02-23T18:44:07.585Z,47.50
2018-02-23T18:46:36.951Z,48.20
2018-02-23T18:49:06.454Z,47.00
2018-02-23T18:51:36.003Z,47.60
2018-02-23T18:54:05.414Z,47.10
2018-02-23T18:56:34.728Z,47.00
2018-02-23T18:59:03.977Z,48.50
2018-02-23T19:01:33.273Z,47.20
2018-02-23T19:04:02.530Z,46.70
2018-02-23T19:06:31.798Z,46.20
2018-02-23T19:09:01.050Z,46.00
2018-02-23T19:11:30.325Z,46.70
2018-02-23T19:13:59.601Z,46.80
2018-02-23T19:16:28.841Z,46.60
2018-02-23T19:18:58.102Z,46.50
2018-02-23T19:21:27.498Z,46.80
2018-02-23T19:23:56.838Z,47.10
2018-02-23T19:26:26.860Z,47.30
2018-02-23T19:28:56.122Z,47.20
2018-02-23T19:31:25.419Z,47.10
2018-02-23T19:33:54.722Z,47.50
2018-02-23T19:36:24.023Z,47.00
2018-02-23T19:38:53.385Z,46.70
2018-02-23T19:41:22.658Z,46.90
2018-02-23T19:43:51.925Z,46.90
2018-02-23T19:46:21.217Z,47.50
2018-02-23T19:48:50.471Z,46.70
2018-02-23T19:51:19.739Z,47.20
2018-02-23T19:53:48.977Z,47.30
2018-02-23T19:56:18.217Z,47.30
2018-02-23T19:58:47.533Z,47.40
2018-02-23T20:01:16.862Z,47.50
2018-02-23T20:03:46.210Z,47.70
2018-02-23T20:06:15.490Z,47.60
2018-02-23T20:08:45.150Z,47.70
2018-02-23T20:11:15.615Z,48.00
2018-02-23T20:13:44.877Z,48.00
2018-02-23T20:16:14.230Z,47.90
2018-02-23T20:18:43.521Z,48.10
2018-02-23T20:21:12.785Z,47.80
2018-02-23T20:23:42.040Z,48.20
2018-02-23T20:26:11.982Z,48.50
2018-02-23T20:28:41.241Z,48.50
2018-02-23T20:31:10.550Z,48.60
2018-02-23T20:33:39.952Z,47.50
2018-02-23T20:36:09.942Z,47.70
2018-02-23T20:38:39.197Z,48.10
2018-02-23T20:41:08.477Z,48.30
2018-02-23T20:43:37.774Z,49.80
2018-02-23T20:46:07.291Z,48.20
2018-02-23T20:48:36.610Z,48.50
2018-02-23T20:51:06.208Z,48.60
2018-02-23T20:53:35.475Z,48.20
2018-02-23T20:56:04.750Z,48.20
2018-02-23T20:58:35.539Z,48.80
2018-02-23T21:01:04.825Z,48.80
2018-02-23T21:03:34.907Z,48.50
2018-02-23T21:06:04.186Z,48.40
2018-02-23T21:08:33.478Z,48.70
2018-02-23T21:11:02.730Z,49.00
2018-02-23T21:13:31.989Z,48.70
2018-02-23T21:16:01.271Z,48.90
2018-02-23T21:18:30.565Z,49.40
2018-02-23T21:20:59.831Z,49.00
2018-02-23T21:23:29.101Z,49.40
2018-02-23T21:25:58.501Z,49.60
2018-02-23T21:28:28.382Z,49.20
2018-02-23T21:30:57.654Z,50.10
2018-02-23T21:33:27.706Z,50.20
2018-02-23T21:35:57.023Z,50.20
2018-02-23T21:38:26.256Z,50.60
2018-02-23T21:40:55.549Z,50.70
2018-02-23T21:43:24.805Z,50.60
2018-02-23T21:45:54.088Z,50.70
2018-02-23T21:48:24.312Z,50.70
2018-02-23T21:50:53.585Z,50.70
2018-02-23T21:53:22.873Z,50.90
2018-02-23T21:55:52.774Z,51.60
2018-02-23T21:58:22.140Z,51.70
2018-02-23T22:00:51.456Z,51.60
2018-02-23T22:03:20.728Z,51.80
2018-02-23T22:05:49.983Z,51.90
2018-02-23T22:08:19.262Z,52.20
2018-02-23T22:10:48.735Z,53.00
2018-02-23T22:13:18.776Z,53.10
2018-02-23T22:15:48.030Z,53.10
2018-02-23T22:18:17.323Z,52.80
2018-02-23T22:20:46.579Z,52.80
2018-02-23T22:23:15.878Z,53.50
2018-02-23T22:25:45.234Z,53.00
2018-02-23T22:28:14.546Z,53.20
2018-02-23T22:30:44.181Z,53.00
2018-02-23T22:33:14.210Z,53.90
2018-02-23T22:35:43.502Z,53.80
2018-02-23T22:40:48.274Z,53.80
2018-02-23T22:43:17.554Z,54.10
2018-02-23T22:45:46.904Z,53.40
2018-02-23T22:48:16.207Z,53.80
2018-02-23T22:50:45.674Z,53.50
2018-02-23T22:53:14.955Z,54.30
2018-02-23T22:55:44.229Z,54.00
2018-02-23T22:58:13.530Z,54.80
2018-02-23T23:00:42.828Z,54.40
2018-02-23T23:03:12.121Z,54.80
2018-02-23T23:05:41.422Z,55.40
2018-02-23T23:08:12.434Z,55.20
2018-02-23T23:10:41.683Z,55.20
2018-02-23T23:13:10.962Z,55.60
2018-02-23T23:15:40.317Z,55.50
2018-02-23T23:18:09.580Z,55.50
2018-02-23T23:20:38.903Z,54.80
2018-02-23T23:23:08.222Z,55.60
2018-02-23T23:25:37.494Z,55.40
2018-02-23T23:28:06.745Z,55.60
2018-02-23T23:30:36.115Z,55.90
2018-02-23T23:33:05.399Z,55.30
2018-02-23T23:35:34.688Z,55.20
2018-02-23T23:38:04.070Z,55.20
2018-02-23T23:40:33.520Z,55.60
2018-02-23T23:43:02.973Z,56.00
2018-02-23T23:45:32.272Z,55.40
2018-02-23T23:48:01.625Z,55.20
2018-02-23T23:50:31.103Z,55.70
2018-02-23T23:53:01.858Z,55.70
2018-02-23T23:55:31.165Z,55.70
2018-02-23T23:58:00.421Z,55.50
